sensor_id;sensor_type;location;lat;lon;timestamp;P1;durP1;ratioP1;P2;durP2;ratioP2
46607;SDS011;32330;51.936;7.184;2022-11-15T03:21:04;11.57;;;9.90;;
46607;SDS011;32330;51.936;7.184;2022-11-15T03:23:53;14.50;;;10.77;;
46607;SDS011;32330;51.936;7.184;2022-11-15T03:26:40;12.35;;;11.05;;
46607;SDS011;32330;51.936;7.184;2022-11-15T03:29:29;12.30;;;10.25;;
46607;SDS011;32330;51.936;7.184;2022-11-15T03:32:18;13.38;;;10.10;;
46607;SDS011;32330;51.936;7.184;2022-11-15T03:35:07;13.05;;;10.90;;
46607;SDS011;32330;51.936;7.184;2022-11-15T03:37:59;10.93;;;9.60;;
46607;SDS011;32330;51.936;7.184;2022-11-15T03:40:51;11.82;;;9.70;;
46607;SDS011;32330;51.936;7.184;2022-11-15T03:43:44;12.15;;;9.18;;
46607;SDS011;32330;51.936;7.184;2022-11-15T03:46:36;11.57;;;9.80;;
46607;SDS011;32330;51.936;7.184;2022-11-15T03:49:27;14.20;;;10.43;;
46607;SDS011;32330;51.936;7.184;2022-11-15T03:52:17;11.07;;;9.80;;
46607;SDS011;32330;51.936;7.184;2022-11-15T03:55:05;11.60;;;10.40;;
46607;SDS011;32330;51.936;7.184;2022-11-15T03:57:54;11.43;;;9.38;;
46607;SDS011;32330;51.936;7.184;2022-11-15T04:00:43;13.32;;;9.40;;
46607;SDS011;32330;51.936;7.184;2022-11-15T04:03:28;11.98;;;9.55;;
46607;SDS011;32330;51.936;7.184;2022-11-15T04:06:13;12.32;;;9.25;;
46607;SDS011;32330;51.936;7.184;2022-11-15T04:08:59;11.05;;;9.02;;
46607;SDS011;32330;51.936;7.184;2022-11-15T04:11:46;11.60;;;9.02;;
46607;SDS011;32330;51.936;7.184;2022-11-15T04:14:31;9.55;;;8.65;;
46607;SDS011;32330;51.936;7.184;2022-11-15T04:17:17;11.15;;;9.25;;
46607;SDS011;32330;51.936;7.184;2022-11-15T04:20:03;9.65;;;8.65;;
46607;SDS011;32330;51.936;7.184;2022-11-15T04:23:08;8.70;;;7.80;;
46607;SDS011;32330;51.936;7.184;2022-11-15T04:26:15;11.32;;;8.50;;
46607;SDS011;32330;51.936;7.184;2022-11-15T04:29:04;10.80;;;8.77;;
46607;SDS011;32330;51.936;7.184;2022-11-15T04:32:09;9.55;;;8.30;;
46607;SDS011;32330;51.936;7.184;2022-11-15T04:34:55;8.57;;;7.65;;
46607;SDS011;32330;51.936;7.184;2022-11-15T04:37:40;11.05;;;9.32;;
46607;SDS011;32330;51.936;7.184;2022-11-15T04:40:26;9.77;;;8.00;;
46607;SDS011;32330;51.936;7.184;2022-11-15T04:43:12;12.20;;;8.95;;
46607;SDS011;32330;51.936;7.184;2022-11-15T04:45:58;13.80;;;8.57;;
46607;SDS011;32330;51.936;7.184;2022-11-15T04:48:44;8.93;;;8.02;;
46607;SDS011;32330;51.936;7.184;2022-11-15T04:51:30;11.70;;;8.20;;
46607;SDS011;32330;51.936;7.184;2022-11-15T04:54:15;12.57;;;8.02;;
46607;SDS011;32330;51.936;7.184;2022-11-15T04:57:01;10.13;;;8.15;;
46607;SDS011;32330;51.936;7.184;2022-11-15T04:59:47;10.38;;;8.15;;
46607;SDS011;32330;51.936;7.184;2022-11-15T05:02:33;10.23;;;7.43;;
46607;SDS011;32330;51.936;7.184;2022-11-15T05:05:37;10.32;;;7.60;;
46607;SDS011;32330;51.936;7.184;2022-11-15T05:08:22;10.20;;;7.43;;
46607;SDS011;32330;51.936;7.184;2022-11-15T05:11:08;9.07;;;7.95;;
46607;SDS011;32330;51.936;7.184;2022-11-15T05:13:53;10.00;;;7.95;;
46607;SDS011;32330;51.936;7.184;2022-11-15T05:16:39;9.85;;;8.02;;
46607;SDS011;32330;51.936;7.184;2022-11-15T05:19:26;10.93;;;8.23;;
46607;SDS011;32330;51.936;7.184;2022-11-15T05:22:12;9.48;;;8.23;;
46607;SDS011;32330;51.936;7.184;2022-11-15T05:24:58;11.10;;;8.20;;
46607;SDS011;32330;51.936;7.184;2022-11-15T05:27:43;9.55;;;7.63;;
46607;SDS011;32330;51.936;7.184;2022-11-15T05:30:29;9.90;;;7.70;;
46607;SDS011;32330;51.936;7.184;2022-11-15T05:33:15;10.63;;;7.95;;
46607;SDS011;32330;51.936;7.184;2022-11-15T05:36:03;8.18;;;7.05;;
46607;SDS011;32330;51.936;7.184;2022-11-15T05:38:52;11.40;;;9.20;;
46607;SDS011;32330;51.936;7.184;2022-11-15T05:41:46;12.90;;;10.55;;
46607;SDS011;32330;51.936;7.184;2022-11-15T05:44:33;9.73;;;8.70;;
46607;SDS011;32330;51.936;7.184;2022-11-15T05:47:21;10.95;;;8.45;;
46607;SDS011;32330;51.936;7.184;2022-11-15T05:50:13;11.15;;;8.27;;
46607;SDS011;32330;51.936;7.184;2022-11-15T05:53:03;12.75;;;7.95;;
46607;SDS011;32330;51.936;7.184;2022-11-15T05:55:49;8.98;;;7.38;;
46607;SDS011;32330;51.936;7.184;2022-11-15T05:58:35;11.30;;;7.93;;
46607;SDS011;32330;51.936;7.184;2022-11-15T06:01:22;10.93;;;8.05;;
46607;SDS011;32330;51.936;7.184;2022-11-15T06:04:08;9.80;;;7.68;;
46607;SDS011;32330;51.936;7.184;2022-11-15T06:06:53;10.45;;;8.23;;
46607;SDS011;32330;51.936;7.184;2022-11-15T06:09:40;7.90;;;7.10;;
46607;SDS011;32330;51.936;7.184;2022-11-15T06:12:25;10.05;;;8.48;;
46607;SDS011;32330;51.936;7.184;2022-11-15T06:15:11;12.68;;;9.10;;
46607;SDS011;32330;51.936;7.184;2022-11-15T06:17:56;11.35;;;7.90;;
46607;SDS011;32330;51.936;7.184;2022-11-15T06:20:42;11.32;;;8.73;;
46607;SDS011;32330;51.936;7.184;2022-11-15T06:23:27;9.40;;;8.50;;
46607;SDS011;32330;51.936;7.184;2022-11-15T06:26:17;10.95;;;8.68;;
46607;SDS011;32330;51.936;7.184;2022-11-15T06:29:03;10.38;;;8.93;;
46607;SDS011;32330;51.936;7.184;2022-11-15T06:31:49;9.77;;;8.32;;
46607;SDS011;32330;51.936;7.184;2022-11-15T06:34:34;10.18;;;9.10;;
46607;SDS011;32330;51.936;7.184;2022-11-15T06:37:20;11.57;;;9.57;;
46607;SDS011;32330;51.936;7.184;2022-11-15T06:40:06;10.70;;;9.35;;
46607;SDS011;32330;51.936;7.184;2022-11-15T06:42:58;9.70;;;8.60;;
46607;SDS011;32330;51.936;7.184;2022-11-15T06:45:44;9.10;;;8.20;;
46607;SDS011;32330;51.936;7.184;2022-11-15T06:48:30;10.70;;;8.70;;
46607;SDS011;32330;51.936;7.184;2022-11-15T06:51:16;14.32;;;9.40;;
46607;SDS011;32330;51.936;7.184;2022-11-15T06:54:02;9.32;;;8.35;;
46607;SDS011;32330;51.936;7.184;2022-11-15T06:56:47;11.95;;;9.20;;
46607;SDS011;32330;51.936;7.184;2022-11-15T06:59:34;10.57;;;8.93;;
46607;SDS011;32330;51.936;7.184;2022-11-15T07:02:20;12.52;;;9.05;;
46607;SDS011;32330;51.936;7.184;2022-11-15T07:05:06;9.25;;;8.32;;
46607;SDS011;32330;51.936;7.184;2022-11-15T07:07:52;10.50;;;8.45;;
46607;SDS011;32330;51.936;7.184;2022-11-15T07:10:38;10.38;;;8.95;;
46607;SDS011;32330;51.936;7.184;2022-11-15T07:13:23;10.60;;;8.77;;
46607;SDS011;32330;51.936;7.184;2022-11-15T07:16:11;9.35;;;8.45;;
46607;SDS011;32330;51.936;7.184;2022-11-15T07:18:56;10.18;;;8.38;;
46607;SDS011;32330;51.936;7.184;2022-11-15T07:21:42;10.50;;;8.38;;
46607;SDS011;32330;51.936;7.184;2022-11-15T07:24:27;9.82;;;8.82;;
46607;SDS011;32330;51.936;7.184;2022-11-15T07:27:13;10.25;;;9.18;;
46607;SDS011;32330;51.936;7.184;2022-11-15T07:29:58;10.38;;;9.23;;
46607;SDS011;32330;51.936;7.184;2022-11-15T07:32:46;12.05;;;8.43;;
46607;SDS011;32330;51.936;7.184;2022-11-15T07:35:31;9.60;;;8.45;;
46607;SDS011;32330;51.936;7.184;2022-11-15T07:38:17;9.02;;;7.93;;
46607;SDS011;32330;51.936;7.184;2022-11-15T07:41:04;10.55;;;8.52;;
46607;SDS011;32330;51.936;7.184;2022-11-15T07:43:50;11.95;;;8.32;;
46607;SDS011;32330;51.936;7.184;2022-11-15T07:46:36;10.55;;;8.68;;
46607;SDS011;32330;51.936;7.184;2022-11-15T07:49:23;9.20;;;8.18;;
46607;SDS011;32330;51.936;7.184;2022-11-15T07:52:08;10.05;;;9.05;;
46607;SDS011;32330;51.936;7.184;2022-11-15T07:54:54;9.35;;;8.30;;
46607;SDS011;32330;51.936;7.184;2022-11-15T07:57:39;8.77;;;7.82;;
46607;SDS011;32330;51.936;7.184;2022-11-15T08:00:25;11.02;;;9.57;;
46607;SDS011;32330;51.936;7.184;2022-11-15T08:03:11;11.23;;;8.38;;
46607;SDS011;32330;51.936;7.184;2022-11-15T08:06:00;8.57;;;7.78;;
46607;SDS011;32330;51.936;7.184;2022-11-15T08:08:46;9.85;;;8.73;;
46607;SDS011;32330;51.936;7.184;2022-11-15T08:11:32;9.95;;;7.95;;
46607;SDS011;32330;51.936;7.184;2022-11-15T08:14:17;9.35;;;8.32;;
46607;SDS011;32330;51.936;7.184;2022-11-15T08:17:02;8.10;;;7.35;;
46607;SDS011;32330;51.936;7.184;2022-11-15T08:19:48;8.30;;;7.57;;
46607;SDS011;32330;51.936;7.184;2022-11-15T08:22:35;7.43;;;6.70;;
46607;SDS011;32330;51.936;7.184;2022-11-15T08:25:20;9.15;;;7.13;;
46607;SDS011;32330;51.936;7.184;2022-11-15T08:28:06;7.03;;;6.35;;
46607;SDS011;32330;51.936;7.184;2022-11-15T08:30:54;6.85;;;6.15;;
46607;SDS011;32330;51.936;7.184;2022-11-15T08:33:40;7.45;;;6.65;;
46607;SDS011;32330;51.936;7.184;2022-11-15T08:36:25;7.50;;;6.75;;
46607;SDS011;32330;51.936;7.184;2022-11-15T08:39:13;7.00;;;6.28;;
46607;SDS011;32330;51.936;7.184;2022-11-15T08:41:58;6.63;;;5.95;;
46607;SDS011;32330;51.936;7.184;2022-11-15T08:44:44;7.30;;;5.93;;
46607;SDS011;32330;51.936;7.184;2022-11-15T08:47:30;8.40;;;5.97;;
46607;SDS011;32330;51.936;7.184;2022-11-15T08:50:16;6.82;;;5.40;;
46607;SDS011;32330;51.936;7.184;2022-11-15T08:53:04;6.47;;;5.45;;
46607;SDS011;32330;51.936;7.184;2022-11-15T08:55:52;5.10;;;4.60;;
46607;SDS011;32330;51.936;7.184;2022-11-15T08:58:37;5.28;;;4.78;;
46607;SDS011;32330;51.936;7.184;2022-11-15T09:01:23;4.65;;;4.15;;
46607;SDS011;32330;51.936;7.184;2022-11-15T09:04:09;5.00;;;4.00;;
46607;SDS011;32330;51.936;7.184;2022-11-15T09:06:54;4.30;;;3.13;;
46607;SDS011;32330;51.936;7.184;2022-11-15T09:09:40;4.32;;;3.20;;
46607;SDS011;32330;51.936;7.184;2022-11-15T09:12:27;4.10;;;3.25;;
46607;SDS011;32330;51.936;7.184;2022-11-15T09:15:13;4.25;;;2.60;;
46607;SDS011;32330;51.936;7.184;2022-11-15T09:17:58;3.08;;;2.45;;
46607;SDS011;32330;51.936;7.184;2022-11-15T09:20:44;6.70;;;2.70;;
46607;SDS011;32330;51.936;7.184;2022-11-15T09:23:29;2.95;;;2.40;;
46607;SDS011;32330;51.936;7.184;2022-11-15T09:26:15;6.22;;;2.65;;
46607;SDS011;32330;51.936;7.184;2022-11-15T09:29:02;2.40;;;2.17;;
46607;SDS011;32330;51.936;7.184;2022-11-15T09:31:48;3.00;;;2.28;;
46607;SDS011;32330;51.936;7.184;2022-11-15T09:34:33;3.10;;;2.30;;
46607;SDS011;32330;51.936;7.184;2022-11-15T09:37:19;2.47;;;1.65;;
46607;SDS011;32330;51.936;7.184;2022-11-15T09:40:05;2.45;;;1.88;;
46607;SDS011;32330;51.936;7.184;2022-11-15T09:43:00;2.30;;;1.70;;
46607;SDS011;32330;51.936;7.184;2022-11-15T09:46:11;2.33;;;1.13;;
46607;SDS011;32330;51.936;7.184;2022-11-15T09:49:22;1.30;;;0.70;;
46607;SDS011;32330;51.936;7.184;2022-11-15T09:52:09;2.08;;;0.80;;
46607;SDS011;32330;51.936;7.184;2022-11-15T09:54:38;1.10;;;0.52;;
46607;SDS011;32330;51.936;7.184;2022-11-15T09:57:09;1.60;;;0.90;;
46607;SDS011;32330;51.936;7.184;2022-11-15T09:59:46;3.55;;;1.00;;
46607;SDS011;32330;51.936;7.184;2022-11-15T10:02:28;3.70;;;1.20;;
46607;SDS011;32330;51.936;7.184;2022-11-15T10:05:06;3.05;;;1.42;;
46607;SDS011;32330;51.936;7.184;2022-11-15T10:07:42;2.00;;;1.20;;
46607;SDS011;32330;51.936;7.184;2022-11-15T10:10:15;1.75;;;1.10;;
46607;SDS011;32330;51.936;7.184;2022-11-15T10:12:49;1.85;;;1.00;;
46607;SDS011;32330;51.936;7.184;2022-11-15T10:15:18;3.55;;;1.58;;
46607;SDS011;32330;51.936;7.184;2022-11-15T10:18:12;2.95;;;1.15;;
46607;SDS011;32330;51.936;7.184;2022-11-15T10:20:46;2.03;;;1.08;;
46607;SDS011;32330;51.936;7.184;2022-11-15T10:23:16;2.38;;;1.20;;
46607;SDS011;32330;51.936;7.184;2022-11-15T10:25:46;2.63;;;1.30;;
46607;SDS011;32330;51.936;7.184;2022-11-15T10:28:17;3.28;;;1.73;;
46607;SDS011;32330;51.936;7.184;2022-11-15T10:30:48;3.65;;;1.88;;
46607;SDS011;32330;51.936;7.184;2022-11-15T10:33:32;3.40;;;2.50;;
46607;SDS011;32330;51.936;7.184;2022-11-15T10:36:18;4.20;;;2.50;;
46607;SDS011;32330;51.936;7.184;2022-11-15T10:38:55;4.68;;;2.95;;
46607;SDS011;32330;51.936;7.184;2022-11-15T10:41:29;3.95;;;3.38;;
46607;SDS011;32330;51.936;7.184;2022-11-15T10:44:17;5.07;;;3.15;;
46607;SDS011;32330;51.936;7.184;2022-11-15T10:47:03;4.38;;;2.70;;
46607;SDS011;32330;51.936;7.184;2022-11-15T10:49:52;4.10;;;2.40;;
46607;SDS011;32330;51.936;7.184;2022-11-15T10:52:21;4.53;;;2.33;;
46607;SDS011;32330;51.936;7.184;2022-11-15T10:54:51;3.88;;;2.40;;
46607;SDS011;32330;51.936;7.184;2022-11-15T10:57:22;3.50;;;2.28;;
46607;SDS011;32330;51.936;7.184;2022-11-15T10:59:52;2.83;;;2.10;;
46607;SDS011;32330;51.936;7.184;2022-11-15T11:02:29;3.58;;;1.90;;
46607;SDS011;32330;51.936;7.184;2022-11-15T11:05:00;3.53;;;2.90;;
46607;SDS011;32330;51.936;7.184;2022-11-15T11:07:30;2.80;;;2.30;;
46607;SDS011;32330;51.936;7.184;2022-11-15T11:10:00;2.42;;;1.80;;
46607;SDS011;32330;51.936;7.184;2022-11-15T11:12:29;6.22;;;3.05;;
46607;SDS011;32330;51.936;7.184;2022-11-15T11:15:00;6.05;;;2.10;;
46607;SDS011;32330;51.936;7.184;2022-11-15T11:17:38;3.20;;;1.90;;
46607;SDS011;32330;51.936;7.184;2022-11-15T11:20:20;2.30;;;1.90;;
46607;SDS011;32330;51.936;7.184;2022-11-15T11:22:57;4.45;;;1.63;;
46607;SDS011;32330;51.936;7.184;2022-11-15T11:25:32;3.55;;;1.58;;
46607;SDS011;32330;51.936;7.184;2022-11-15T11:28:05;2.67;;;1.55;;
46607;SDS011;32330;51.936;7.184;2022-11-15T11:30:54;2.97;;;1.60;;
46607;SDS011;32330;51.936;7.184;2022-11-15T11:33:31;3.45;;;1.60;;
46607;SDS011;32330;51.936;7.184;2022-11-15T11:36:04;3.22;;;1.30;;
46607;SDS011;32330;51.936;7.184;2022-11-15T11:38:47;4.70;;;1.42;;
46607;SDS011;32330;51.936;7.184;2022-11-15T11:41:26;2.17;;;1.30;;
46607;SDS011;32330;51.936;7.184;2022-11-15T11:44:11;4.20;;;1.73;;
46607;SDS011;32330;51.936;7.184;2022-11-15T11:46:48;3.10;;;1.45;;
46607;SDS011;32330;51.936;7.184;2022-11-15T11:49:21;1.60;;;0.98;;
46607;SDS011;32330;51.936;7.184;2022-11-15T11:51:54;3.22;;;0.90;;
46607;SDS011;32330;51.936;7.184;2022-11-15T11:54:29;5.50;;;1.35;;
46607;SDS011;32330;51.936;7.184;2022-11-15T11:57:02;2.67;;;1.10;;
46607;SDS011;32330;51.936;7.184;2022-11-15T11:59:33;2.45;;;0.90;;
46607;SDS011;32330;51.936;7.184;2022-11-15T12:02:09;2.65;;;1.55;;
46607;SDS011;32330;51.936;7.184;2022-11-15T12:04:42;2.08;;;0.77;;
46607;SDS011;32330;51.936;7.184;2022-11-15T12:07:17;1.90;;;0.80;;
46607;SDS011;32330;51.936;7.184;2022-11-15T12:09:51;2.72;;;1.00;;
46607;SDS011;32330;51.936;7.184;2022-11-15T12:12:23;2.58;;;0.88;;
46607;SDS011;32330;51.936;7.184;2022-11-15T12:14:57;1.42;;;0.80;;
46607;SDS011;32330;51.936;7.184;2022-11-15T12:17:28;2.92;;;0.75;;
46607;SDS011;32330;51.936;7.184;2022-11-15T12:19:57;5.05;;;0.85;;
46607;SDS011;32330;51.936;7.184;2022-11-15T12:22:28;2.92;;;0.60;;
46607;SDS011;32330;51.936;7.184;2022-11-15T12:25:04;3.00;;;0.90;;
46607;SDS011;32330;51.936;7.184;2022-11-15T12:27:35;1.40;;;0.65;;
46607;SDS011;32330;51.936;7.184;2022-11-15T12:30:08;2.00;;;0.85;;
46607;SDS011;32330;51.936;7.184;2022-11-15T12:32:39;2.70;;;0.75;;
46607;SDS011;32330;51.936;7.184;2022-11-15T12:35:20;2.20;;;0.90;;
46607;SDS011;32330;51.936;7.184;2022-11-15T12:37:52;2.97;;;0.70;;
46607;SDS011;32330;51.936;7.184;2022-11-15T12:40:24;1.42;;;0.60;;
46607;SDS011;32330;51.936;7.184;2022-11-15T12:46:04;1.65;;;0.80;;
46607;SDS011;32330;51.936;7.184;2022-11-15T12:57:37;4.35;;;1.00;;
46607;SDS011;32330;51.936;7.184;2022-11-15T13:03:16;4.03;;;0.77;;
46607;SDS011;32330;51.936;7.184;2022-11-15T13:05:59;4.22;;;0.85;;
46607;SDS011;32330;51.936;7.184;2022-11-15T13:08:41;4.80;;;0.82;;
46607;SDS011;32330;51.936;7.184;2022-11-15T13:17:26;2.42;;;1.00;;
46607;SDS011;32330;51.936;7.184;2022-11-15T13:19:58;3.00;;;0.80;;
46607;SDS011;32330;51.936;7.184;2022-11-15T13:22:42;1.50;;;0.80;;
46607;SDS011;32330;51.936;7.184;2022-11-15T13:25:40;3.47;;;1.85;;
46607;SDS011;32330;51.936;7.184;2022-11-15T13:28:21;1.77;;;0.82;;
46607;SDS011;32330;51.936;7.184;2022-11-15T13:30:55;2.50;;;0.73;;
46607;SDS011;32330;51.936;7.184;2022-11-15T13:33:23;1.30;;;0.70;;
46607;SDS011;32330;51.936;7.184;2022-11-15T13:35:52;1.45;;;0.55;;
46607;SDS011;32330;51.936;7.184;2022-11-15T13:38:25;3.22;;;0.70;;
46607;SDS011;32330;51.936;7.184;2022-11-15T13:40:54;2.03;;;0.55;;
46607;SDS011;32330;51.936;7.184;2022-11-15T13:43:29;1.20;;;0.50;;
46607;SDS011;32330;51.936;7.184;2022-11-15T13:46:05;1.10;;;0.40;;
46607;SDS011;32330;51.936;7.184;2022-11-15T13:48:33;2.03;;;0.75;;
46607;SDS011;32330;51.936;7.184;2022-11-15T13:51:00;1.70;;;0.70;;
46607;SDS011;32330;51.936;7.184;2022-11-15T13:53:30;1.33;;;0.70;;
46607;SDS011;32330;51.936;7.184;2022-11-15T13:55:58;1.42;;;0.68;;
46607;SDS011;32330;51.936;7.184;2022-11-15T13:58:25;1.02;;;0.55;;
46607;SDS011;32330;51.936;7.184;2022-11-15T14:00:58;3.72;;;0.80;;
46607;SDS011;32330;51.936;7.184;2022-11-15T14:03:29;2.67;;;1.50;;
46607;SDS011;32330;51.936;7.184;2022-11-15T14:06:02;4.20;;;1.00;;
46607;SDS011;32330;51.936;7.184;2022-11-15T14:08:32;1.75;;;0.60;;
46607;SDS011;32330;51.936;7.184;2022-11-15T14:11:07;1.77;;;0.52;;
46607;SDS011;32330;51.936;7.184;2022-11-15T14:13:37;3.30;;;0.77;;
46607;SDS011;32330;51.936;7.184;2022-11-15T14:16:18;2.35;;;0.65;;
46607;SDS011;32330;51.936;7.184;2022-11-15T14:18:48;1.45;;;0.68;;
46607;SDS011;32330;51.936;7.184;2022-11-15T14:21:16;2.47;;;0.90;;
46607;SDS011;32330;51.936;7.184;2022-11-15T14:23:44;3.88;;;0.90;;
46607;SDS011;32330;51.936;7.184;2022-11-15T14:26:25;1.75;;;0.70;;
46607;SDS011;32330;51.936;7.184;2022-11-15T14:28:54;5.38;;;1.13;;
46607;SDS011;32330;51.936;7.184;2022-11-15T14:31:21;4.00;;;0.93;;
46607;SDS011;32330;51.936;7.184;2022-11-15T14:33:49;1.83;;;0.80;;
46607;SDS011;32330;51.936;7.184;2022-11-15T14:36:17;2.72;;;0.95;;
46607;SDS011;32330;51.936;7.184;2022-11-15T14:38:45;1.90;;;0.60;;
46607;SDS011;32330;51.936;7.184;2022-11-15T14:41:19;2.20;;;0.85;;
46607;SDS011;32330;51.936;7.184;2022-11-15T14:43:48;3.15;;;1.10;;
46607;SDS011;32330;51.936;7.184;2022-11-15T14:46:15;4.40;;;0.85;;
46607;SDS011;32330;51.936;7.184;2022-11-15T14:48:42;2.45;;;0.93;;
46607;SDS011;32330;51.936;7.184;2022-11-15T14:51:12;3.22;;;0.90;;
46607;SDS011;32330;51.936;7.184;2022-11-15T14:53:39;2.07;;;0.70;;
46607;SDS011;32330;51.936;7.184;2022-11-15T14:56:07;2.45;;;0.70;;
46607;SDS011;32330;51.936;7.184;2022-11-15T14:58:34;3.20;;;0.90;;
46607;SDS011;32330;51.936;7.184;2022-11-15T15:01:01;2.65;;;0.73;;
46607;SDS011;32330;51.936;7.184;2022-11-15T15:03:29;2.00;;;0.95;;
46607;SDS011;32330;51.936;7.184;2022-11-15T15:05:56;2.50;;;0.90;;
46607;SDS011;32330;51.936;7.184;2022-11-15T15:08:24;2.35;;;1.00;;
46607;SDS011;32330;51.936;7.184;2022-11-15T15:10:51;1.70;;;0.95;;
46607;SDS011;32330;51.936;7.184;2022-11-15T15:13:18;2.00;;;1.00;;
46607;SDS011;32330;51.936;7.184;2022-11-15T15:15:46;4.43;;;0.88;;
46607;SDS011;32330;51.936;7.184;2022-11-15T15:18:14;2.33;;;0.85;;
46607;SDS011;32330;51.936;7.184;2022-11-15T15:20:42;2.20;;;0.88;;
46607;SDS011;32330;51.936;7.184;2022-11-15T15:23:14;2.72;;;0.82;;
46607;SDS011;32330;51.936;7.184;2022-11-15T15:25:44;2.30;;;1.00;;
46607;SDS011;32330;51.936;7.184;2022-11-15T15:28:13;2.53;;;0.93;;
46607;SDS011;32330;51.936;7.184;2022-11-15T15:30:40;2.53;;;1.00;;
46607;SDS011;32330;51.936;7.184;2022-11-15T15:33:07;2.78;;;0.90;;
46607;SDS011;32330;51.936;7.184;2022-11-15T15:35:34;3.80;;;1.15;;
46607;SDS011;32330;51.936;7.184;2022-11-15T15:38:01;3.97;;;1.17;;
46607;SDS011;32330;51.936;7.184;2022-11-15T15:40:30;2.10;;;1.20;;
46607;SDS011;32330;51.936;7.184;2022-11-15T15:42:59;3.42;;;1.10;;
46607;SDS011;32330;51.936;7.184;2022-11-15T15:45:26;6.20;;;1.05;;
46607;SDS011;32330;51.936;7.184;2022-11-15T15:47:54;2.50;;;1.10;;
46607;SDS011;32330;51.936;7.184;2022-11-15T15:50:25;3.17;;;1.23;;
46607;SDS011;32330;51.936;7.184;2022-11-15T15:52:54;3.25;;;1.55;;
46607;SDS011;32330;51.936;7.184;2022-11-15T15:55:23;7.40;;;4.00;;
46607;SDS011;32330;51.936;7.184;2022-11-15T15:57:50;6.32;;;2.80;;
46607;SDS011;32330;51.936;7.184;2022-11-15T16:00:19;8.45;;;2.38;;
46607;SDS011;32330;51.936;7.184;2022-11-15T16:02:48;2.95;;;1.48;;
46607;SDS011;32330;51.936;7.184;2022-11-15T16:05:15;4.00;;;1.45;;
46607;SDS011;32330;51.936;7.184;2022-11-15T16:07:43;4.22;;;1.80;;
46607;SDS011;32330;51.936;7.184;2022-11-15T16:10:21;4.55;;;1.70;;
46607;SDS011;32330;51.936;7.184;2022-11-15T16:12:51;5.30;;;1.55;;
46607;SDS011;32330;51.936;7.184;2022-11-15T16:15:21;4.07;;;1.27;;
46607;SDS011;32330;51.936;7.184;2022-11-15T16:17:49;4.00;;;1.70;;
46607;SDS011;32330;51.936;7.184;2022-11-15T16:20:22;4.50;;;1.90;;
46607;SDS011;32330;51.936;7.184;2022-11-15T16:22:55;3.22;;;1.40;;
46607;SDS011;32330;51.936;7.184;2022-11-15T16:25:22;3.35;;;1.20;;
46607;SDS011;32330;51.936;7.184;2022-11-15T16:27:50;4.57;;;1.58;;
46607;SDS011;32330;51.936;7.184;2022-11-15T16:30:18;4.63;;;1.05;;
46607;SDS011;32330;51.936;7.184;2022-11-15T16:32:48;2.42;;;1.33;;
46607;SDS011;32330;51.936;7.184;2022-11-15T16:35:15;5.20;;;1.50;;
46607;SDS011;32330;51.936;7.184;2022-11-15T16:37:43;5.22;;;1.40;;
46607;SDS011;32330;51.936;7.184;2022-11-15T16:40:20;4.30;;;1.48;;
46607;SDS011;32330;51.936;7.184;2022-11-15T16:42:51;4.53;;;1.80;;
46607;SDS011;32330;51.936;7.184;2022-11-15T16:45:21;2.95;;;1.42;;
46607;SDS011;32330;51.936;7.184;2022-11-15T16:47:48;2.75;;;1.30;;
46607;SDS011;32330;51.936;7.184;2022-11-15T16:50:18;2.30;;;1.30;;
46607;SDS011;32330;51.936;7.184;2022-11-15T16:52:49;3.17;;;1.30;;
46607;SDS011;32330;51.936;7.184;2022-11-15T16:55:17;3.25;;;1.58;;
46607;SDS011;32330;51.936;7.184;2022-11-15T16:57:44;5.00;;;1.80;;
46607;SDS011;32330;51.936;7.184;2022-11-15T17:00:11;3.83;;;1.80;;
46607;SDS011;32330;51.936;7.184;2022-11-15T17:02:44;3.05;;;1.10;;
46607;SDS011;32330;51.936;7.184;2022-11-15T17:05:11;3.78;;;1.80;;
46607;SDS011;32330;51.936;7.184;2022-11-15T17:07:39;14.20;;;6.10;;
46607;SDS011;32330;51.936;7.184;2022-11-15T17:10:07;6.32;;;3.10;;
46607;SDS011;32330;51.936;7.184;2022-11-15T17:12:36;3.22;;;1.42;;
46607;SDS011;32330;51.936;7.184;2022-11-15T17:15:03;4.85;;;1.70;;
46607;SDS011;32330;51.936;7.184;2022-11-15T17:17:31;3.53;;;1.73;;
46607;SDS011;32330;51.936;7.184;2022-11-15T17:23:22;4.00;;;2.72;;
46607;SDS011;32330;51.936;7.184;2022-11-15T17:25:45;5.65;;;2.42;;
46607;SDS011;32330;51.936;7.184;2022-11-15T17:28:12;5.25;;;2.42;;
46607;SDS011;32330;51.936;7.184;2022-11-15T17:30:40;6.07;;;2.75;;
46607;SDS011;32330;51.936;7.184;2022-11-15T17:33:08;4.70;;;2.33;;
46607;SDS011;32330;51.936;7.184;2022-11-15T17:35:36;4.47;;;2.33;;
46607;SDS011;32330;51.936;7.184;2022-11-15T17:38:03;4.25;;;2.60;;
46607;SDS011;32330;51.936;7.184;2022-11-15T17:40:30;3.60;;;2.33;;
46607;SDS011;32330;51.936;7.184;2022-11-15T17:42:57;5.07;;;2.33;;
46607;SDS011;32330;51.936;7.184;2022-11-15T17:51:45;3.83;;;2.10;;
46607;SDS011;32330;51.936;7.184;2022-11-15T17:54:12;3.13;;;1.70;;
46607;SDS011;32330;51.936;7.184;2022-11-15T17:56:40;3.78;;;1.85;;
46607;SDS011;32330;51.936;7.184;2022-11-15T17:59:07;5.72;;;1.88;;
46607;SDS011;32330;51.936;7.184;2022-11-15T18:01:40;4.63;;;2.10;;
46607;SDS011;32330;51.936;7.184;2022-11-15T18:04:38;4.68;;;1.85;;
46607;SDS011;32330;51.936;7.184;2022-11-15T18:07:13;5.85;;;2.38;;
46607;SDS011;32330;51.936;7.184;2022-11-15T18:09:42;4.93;;;2.33;;
46607;SDS011;32330;51.936;7.184;2022-11-15T18:12:09;5.55;;;3.20;;
46607;SDS011;32330;51.936;7.184;2022-11-15T18:14:37;4.55;;;2.75;;
46607;SDS011;32330;51.936;7.184;2022-11-15T18:17:04;3.55;;;2.10;;
46607;SDS011;32330;51.936;7.184;2022-11-15T18:19:33;3.47;;;1.80;;
46607;SDS011;32330;51.936;7.184;2022-11-15T18:22:00;3.33;;;2.20;;
46607;SDS011;32330;51.936;7.184;2022-11-15T18:24:31;2.75;;;1.73;;
46607;SDS011;32330;51.936;7.184;2022-11-15T18:27:00;3.28;;;2.17;;
46607;SDS011;32330;51.936;7.184;2022-11-15T18:29:28;2.97;;;1.88;;
46607;SDS011;32330;51.936;7.184;2022-11-15T18:31:55;6.50;;;2.17;;
46607;SDS011;32330;51.936;7.184;2022-11-15T18:34:23;3.22;;;1.52;;
46607;SDS011;32330;51.936;7.184;2022-11-15T18:36:52;3.40;;;2.00;;
46607;SDS011;32330;51.936;7.184;2022-11-15T18:39:19;3.67;;;2.42;;
46607;SDS011;32330;51.936;7.184;2022-11-15T18:41:48;4.13;;;3.08;;
46607;SDS011;32330;51.936;7.184;2022-11-15T18:44:15;6.93;;;2.67;;
46607;SDS011;32330;51.936;7.184;2022-11-15T18:46:43;3.90;;;2.05;;
46607;SDS011;32330;51.936;7.184;2022-11-15T18:49:10;3.33;;;2.03;;
46607;SDS011;32330;51.936;7.184;2022-11-15T18:51:39;3.50;;;2.60;;
46607;SDS011;32330;51.936;7.184;2022-11-15T18:54:07;5.43;;;2.50;;
46607;SDS011;32330;51.936;7.184;2022-11-15T18:56:35;4.50;;;2.97;;
46607;SDS011;32330;51.936;7.184;2022-11-15T18:59:04;5.18;;;3.03;;
46607;SDS011;32330;51.936;7.184;2022-11-15T19:01:33;2.95;;;2.03;;
46607;SDS011;32330;51.936;7.184;2022-11-15T19:04:02;11.85;;;3.35;;
46607;SDS011;32330;51.936;7.184;2022-11-15T19:06:32;3.72;;;2.10;;
46607;SDS011;32330;51.936;7.184;2022-11-15T19:09:01;4.05;;;1.95;;
46607;SDS011;32330;51.936;7.184;2022-11-15T19:11:29;5.55;;;3.40;;
46607;SDS011;32330;51.936;7.184;2022-11-15T19:14:00;5.63;;;2.97;;
46607;SDS011;32330;51.936;7.184;2022-11-15T19:16:30;6.13;;;3.17;;
46607;SDS011;32330;51.936;7.184;2022-11-15T19:18:59;6.10;;;3.50;;
46607;SDS011;32330;51.936;7.184;2022-11-15T19:21:27;5.47;;;3.42;;
46607;SDS011;32330;51.936;7.184;2022-11-15T19:23:55;11.63;;;6.60;;
46607;SDS011;32330;51.936;7.184;2022-11-15T19:26:23;3.92;;;2.40;;
46607;SDS011;32330;51.936;7.184;2022-11-15T19:28:52;6.03;;;3.40;;
46607;SDS011;32330;51.936;7.184;2022-11-15T19:31:20;5.68;;;2.50;;
46607;SDS011;32330;51.936;7.184;2022-11-15T19:33:50;4.38;;;3.00;;
46607;SDS011;32330;51.936;7.184;2022-11-15T19:36:19;4.47;;;3.20;;
46607;SDS011;32330;51.936;7.184;2022-11-15T19:38:47;7.28;;;4.75;;